NCAR-RAP Real-Time Weather Data

Output produced by METARs form (23 February 2020  01:11 UTC)
found at http://weather.rap.ucar.edu/surface/
 
KMDT 230056Z VRB04KT 10SM CLR 06/M13 A3022 RMK AO2 SLP235 T00611133 $
KMDT 222356Z 22011KT 10SM CLR 08/M10 A3020 RMK AO2 SLP231 T00831100 10117 20083 53002 $
KMDT 222256Z 23010KT 10SM CLR 09/M11 A3019 RMK AO2 SLP226 T00891106 $